Portada
METAR-TAF:

METAR-TAF

Aeroports :

Oruro, Bolívia

latitud: 17-58S, longitud: 067-04W, altitud: 3072 m

Observació

L'informe es va fer fa 11 hores i 43 minuts, a les 18:00 UTC
Vent 5 kt del Nord-Oest
Temperatura 20°C
Humitat 30%
Pressió 1038 hPa
Visibilitat 10 km o més

METAR: SLOR 031800Z 31005KT 9999 NSC 20/02 Q1038

Hora: 01:43 (05:43 UTC)


TAF: manca

Observacions i pronòstics meteorològics de més de 4000 aeroports (METAR i TAF).

Les estacions disponibles són els punts grocs i vermells al mapa.

Posi el ratolí al punt desitjat per veure el nom de l'estació.

Feu clic per veure les observacions i els pronòstics meteorològics.

Per canviar el mapa: feu clic els botons verds amb una creu de color negre per apropar; al botó verd amb un guió per allunyar la imatge; o en les fletxes verdes per a mapes adjacents.


METAR-TAF: